Time;durP1;ratioP1;P1;durP2;ratioP2;P2;SDS_P1;SDS_P2;PMS_P1;PMS_P2;Temp;Humidity;BMP_temperature;BMP_pressure;BME280_temperature;BME280_humidity;BME280_pressure;Samples;Min_cycle;Max_cycle;Signal;HPM_P1;HPM_P2
2023/10/13 00:01:33;;;;;;;20.33;10.53;;;;;;;16.18;100.00;101047.06;5109220;28;20475;-87
2023/10/13 00:03:59;;;;;;;24.00;10.85;;;;;;;16.13;100.00;101051.34;5093574;28;20031;-87
2023/10/13 00:06:26;;;;;;;17.45;11.23;;;;;;;16.12;100.00;101043.41;5092763;28;20468;-87
2023/10/13 00:08:55;;;;;;;19.67;10.40;;;;;;;16.09;100.00;101047.47;5075995;28;20078;-87
2023/10/13 00:11:21;;;;;;;20.38;11.23;;;;;;;16.06;100.00;101041.66;5092502;28;20032;-87
2023/10/13 00:13:54;;;;;;;17.05;10.45;;;;;;;16.06;100.00;101030.69;5093646;28;20032;-88
2023/10/13 00:16:28;;;;;;;17.48;10.50;;;;;;;16.03;100.00;101039.41;5076812;28;20033;-87
2023/10/13 00:18:57;;;;;;;21.85;10.73;;;;;;;16.00;100.00;101037.16;5076982;28;20476;-87
2023/10/13 00:21:32;;;;;;;19.13;10.50;;;;;;;15.97;100.00;101033.00;5092642;28;20032;-87
2023/10/13 00:24:06;;;;;;;21.02;10.73;;;;;;;15.93;100.00;101027.22;5092703;28;20115;-87
2023/10/13 00:26:35;;;;;;;16.52;10.48;;;;;;;15.91;100.00;101026.63;5092343;28;20047;-87
2023/10/13 00:29:15;;;;;;;20.45;10.82;;;;;;;15.88;100.00;101024.38;5092358;28;20027;-87
2023/10/13 00:31:42;;;;;;;22.02;10.82;;;;;;;15.85;100.00;101022.13;5092640;28;20081;-87
2023/10/13 00:34:12;;;;;;;22.70;10.20;;;;;;;15.82;100.00;101011.69;5092536;28;20135;-87
2023/10/13 00:37:11;;;;;;;23.75;10.85;;;;;;;15.78;100.00;101011.38;5092840;28;20032;-87
2023/10/13 00:39:36;;;;;;;21.30;10.90;;;;;;;15.77;100.00;101014.31;5093307;28;20550;-87
2023/10/13 00:42:07;;;;;;;20.27;9.68;;;;;;;15.76;100.00;101009.91;5092200;28;20028;-87
2023/10/13 00:44:43;;;;;;;25.70;10.68;;;;;;;15.72;100.00;101004.13;5092198;28;20032;-87
2023/10/13 00:47:10;;;;;;;19.07;9.97;;;;;;;15.70;100.00;101005.44;5093460;28;20028;-87
2023/10/13 00:49:39;;;;;;;22.27;10.48;;;;;;;15.68;100.00;101002.94;5092181;28;20387;-87
2023/10/13 00:52:10;;;;;;;19.17;10.32;;;;;;;15.68;100.00;100994.75;5076094;28;20032;-87
2023/10/13 00:54:39;;;;;;;21.10;10.80;;;;;;;15.69;100.00;100998.28;5093105;28;20069;-87
2023/10/13 00:57:12;;;;;;;18.80;10.00;;;;;;;15.65;100.00;100992.50;5075273;28;20062;-87
2023/10/13 00:59:37;;;;;;;23.97;10.67;;;;;;;15.65;100.00;100989.75;5092333;28;20033;-87
2023/10/13 01:04:47;;;;;;;20.77;10.30;;;;;;;15.63;100.00;100980.97;5092584;28;20043;-87
2023/10/13 01:07:12;;;;;;;19.30;10.07;;;;;;;15.63;100.00;100985.59;5093983;28;20372;-87
2023/10/13 01:09:44;;;;;;;19.53;10.40;;;;;;;15.62;100.00;100976.59;5095227;28;20054;-87
2023/10/13 01:12:09;;;;;;;21.63;10.30;;;;;;;15.60;100.00;100975.97;5079318;28;20422;-86
2023/10/13 01:14:35;;;;;;;17.33;9.60;;;;;;;15.57;100.00;100971.81;5078716;28;20032;-88
2023/10/13 01:17:01;;;;;;;22.17;10.70;;;;;;;15.56;100.00;100959.25;5095255;28;20082;-87
2023/10/13 01:19:27;;;;;;;20.08;9.65;;;;;;;15.55;100.00;100954.84;5095476;28;20115;-86
2023/10/13 01:22:01;;;;;;;20.80;9.43;;;;;;;15.55;100.00;100964.97;5095755;28;20115;-87
2023/10/13 01:24:31;;;;;;;23.95;10.13;;;;;;;15.54;100.00;100952.34;5095848;28;20032;-87
2023/10/13 01:27:07;;;;;;;21.42;8.73;;;;;;;15.52;100.00;100954.53;5079848;28;20040;-86
2023/10/13 01:29:33;;;;;;;17.10;9.18;;;;;;;15.52;100.00;100949.88;5079547;28;20105;-86
2023/10/13 01:31:58;;;;;;;25.17;9.30;;;;;;;15.51;100.00;100950.13;5096264;28;20032;-87
2023/10/13 01:34:23;;;;;;;24.20;9.43;;;;;;;15.50;100.00;100948.44;5111809;28;20055;-87
2023/10/13 01:36:53;;;;;;;20.00;9.57;;;;;;;15.49;100.00;100933.97;5078410;28;20068;-87
2023/10/13 01:39:20;;;;;;;19.00;9.70;;;;;;;15.47;100.00;100929.81;5094863;28;20286;-88
2023/10/13 01:41:46;;;;;;;19.23;9.48;;;;;;;15.46;100.00;100922.66;5078409;28;20132;-88
2023/10/13 01:44:12;;;;;;;18.90;8.98;;;;;;;15.44;100.00;100914.72;5095000;28;20067;-87
2023/10/13 01:46:38;;;;;;;20.50;8.67;;;;;;;15.46;100.00;100917.19;5112036;28;20028;-87
2023/10/13 01:49:04;;;;;;;20.45;9.57;;;;;;;15.48;100.00;100915.88;5095148;28;20081;-87
2023/10/13 01:51:33;;;;;;;19.60;9.30;;;;;;;15.46;100.00;100915.31;5094787;28;20134;-87
2023/10/13 01:53:58;;;;;;;19.67;9.85;;;;;;;15.47;100.00;100907.94;5094889;28;20045;-87
2023/10/13 01:56:25;;;;;;;17.90;9.50;;;;;;;15.48;100.00;100906.88;5095708;28;20036;-87
2023/10/13 01:58:53;;;;;;;20.75;10.30;;;;;;;15.48;100.00;100898.66;5096302;28;20441;-87
2023/10/13 02:01:27;;;;;;;24.00;10.20;;;;;;;15.49;100.00;100890.22;5094735;28;20020;-87
2023/10/13 02:04:04;;;;;;;21.10;10.32;;;;;;;15.49;100.00;100889.41;5094943;28;20047;-87
2023/10/13 02:06:38;;;;;;;20.30;10.70;;;;;;;15.49;100.00;100892.94;5094883;28;20380;-88
2023/10/13 02:09:27;;;;;;;26.08;10.93;;;;;;;15.49;100.00;100884.75;5078019;28;20361;-87
2023/10/13 02:11:54;;;;;;;24.42;10.57;;;;;;;15.52;100.00;100878.78;5094846;28;20055;-91
2023/10/13 02:14:22;;;;;;;26.67;11.15;;;;;;;15.52;100.00;100875.22;5078087;28;20495;-87
2023/10/13 02:16:50;;;;;;;26.92;11.75;;;;;;;15.56;100.00;100879.09;5094426;28;20034;-87
2023/10/13 02:19:16;;;;;;;25.70;12.37;;;;;;;15.56;100.00;100884.56;5060855;28;20042;-87
2023/10/13 02:21:44;;;;;;;27.88;12.65;;;;;;;15.58;100.00;100882.44;5094081;28;20028;-88
2023/10/13 02:24:17;;;;;;;31.10;14.13;;;;;;;15.59;100.00;100882.19;5094275;28;20036;-87
2023/10/13 02:26:43;;;;;;;35.70;14.50;;;;;;;15.59;100.00;100868.50;5094466;28;20051;-87
2023/10/13 02:29:10;;;;;;;37.43;15.03;;;;;;;15.62;100.00;100867.19;5095563;28;20428;-87
2023/10/13 02:31:37;;;;;;;32.08;15.57;;;;;;;15.65;100.00;100868.56;5094459;28;20032;-87
2023/10/13 02:34:09;;;;;;;38.45;15.40;;;;;;;15.65;100.00;100865.84;5095107;28;20052;-87
2023/10/13 02:36:46;;;;;;;35.43;15.93;;;;;;;15.66;100.00;100867.50;5094971;28;20042;-87
2023/10/13 02:39:13;;;;;;;39.72;16.98;;;;;;;15.68;100.00;100851.66;5094347;28;20106;-87
2023/10/13 02:41:40;;;;;;;43.15;17.83;;;;;;;15.70;100.00;100853.09;5093965;28;20395;-87
2023/10/13 02:44:06;;;;;;;42.80;18.48;;;;;;;15.71;100.00;100841.06;5077015;28;20051;-87
2023/10/13 02:46:35;;;;;;;45.10;19.60;;;;;;;15.71;100.00;100832.03;5095626;28;20368;-87
2023/10/13 02:49:09;;;;;;;52.23;19.17;;;;;;;15.73;100.00;100824.41;5094297;28;20035;-87
2023/10/13 02:51:37;;;;;;;42.20;19.35;;;;;;;15.75;100.00;100825.81;5062804;28;20064;-87
2023/10/13 02:54:18;;;;;;;50.50;20.30;;;;;;;15.76;100.00;100816.50;5093793;28;20035;-86
2023/10/13 02:56:56;;;;;;;54.42;20.08;;;;;;;15.77;100.00;100809.97;5093968;28;20040;-86
2023/10/13 02:59:34;;;;;;;56.30;21.25;;;;;;;15.78;100.00;100808.94;5094016;28;20039;-86
2023/10/13 03:04:48;;;;;;;61.63;22.10;;;;;;;15.82;100.00;100792.84;5095382;28;20069;-87
2023/10/13 03:07:22;;;;;;;50.97;20.92;;;;;;;15.82;100.00;100787.38;5094739;28;20032;-86
2023/10/13 03:09:51;;;;;;;57.97;22.10;;;;;;;15.83;100.00;100780.00;5078085;28;20460;-86
2023/10/13 03:12:20;;;;;;;56.85;21.10;;;;;;;15.84;100.00;100778.91;5094806;28;20027;-87
2023/10/13 03:14:47;;;;;;;58.97;22.48;;;;;;;15.84;100.00;100778.91;5093534;28;20024;-86
2023/10/13 03:17:22;;;;;;;61.40;22.85;;;;;;;15.87;100.00;100761.97;5076756;28;20028;-86
2023/10/13 03:19:51;;;;;;;66.93;23.17;;;;;;;15.88;100.00;100766.38;5093618;28;20032;-87
2023/10/13 03:22:18;;;;;;;65.97;25.77;;;;;;;15.88;100.00;100753.53;5093667;28;20107;-86
2023/10/13 03:24:47;;;;;;;66.82;24.33;;;;;;;15.90;100.00;100758.72;5093307;28;20024;-86
2023/10/13 03:27:17;;;;;;;70.78;25.60;;;;;;;15.92;100.00;100760.16;5093049;28;20058;-87
2023/10/13 03:29:44;;;;;;;69.13;24.85;;;;;;;15.94;100.00;100744.31;5093159;28;20115;-86
2023/10/13 03:32:15;;;;;;;68.43;26.83;;;;;;;15.96;100.00;100736.69;5076254;28;20031;-87
2023/10/13 03:37:38;;;;;;;69.55;26.48;;;;;;;16.00;100.00;100727.94;5094353;28;20040;-86
2023/10/13 03:45:42;;;;;;;71.65;26.25;;;;;;;16.05;100.00;100700.66;5078838;28;20040;-87
2023/10/13 03:48:11;;;;;;;76.90;27.17;;;;;;;16.07;100.00;100710.25;5093090;28;20092;-87
2023/10/13 03:50:47;;;;;;;78.80;27.48;;;;;;;16.09;100.00;100707.25;5094010;28;20027;-87
2023/10/13 03:53:13;;;;;;;84.50;28.52;;;;;;;16.12;100.00;100693.06;5061384;28;20028;-86
2023/10/13 03:55:39;;;;;;;75.18;27.60;;;;;;;16.14;100.00;100696.38;5075720;28;20026;-87
2023/10/13 03:58:05;;;;;;;70.07;27.23;;;;;;;16.19;100.00;100695.63;5075943;28;20115;-87
2023/10/13 04:00:31;;;;;;;79.68;27.38;;;;;;;16.19;100.00;100679.19;5093689;28;20060;-87
2023/10/13 04:03:08;;;;;;;69.15;27.35;;;;;;;16.21;100.00;100675.13;5093932;28;20040;-86
2023/10/13 04:05:38;;;;;;;73.20;27.50;;;;;;;16.23;100.00;100672.94;5093503;28;20032;-86
2023/10/13 04:16:15;;;;;;;74.18;27.23;;;;;;;16.29;100.00;100658.22;5092882;28;20051;-86
2023/10/13 04:32:15;;;;;;;57.22;22.92;;;;;;;16.42;100.00;100658.91;5094321;28;20120;-85
2023/10/13 04:34:45;;;;;;;67.07;24.08;;;;;;;16.42;100.00;100653.44;5093215;28;20076;-86
2023/10/13 04:37:32;;;;;;;53.50;21.80;;;;;;;16.45;100.00;100656.47;5092397;28;20028;-86
2023/10/13 04:40:09;;;;;;;54.78;22.05;;;;;;;16.46;100.00;100652.66;5092911;28;20097;-85
2023/10/13 04:42:53;;;;;;;57.03;22.45;;;;;;;16.48;100.00;100642.25;5092846;28;20376;-85
2023/10/13 04:45:38;;;;;;;62.38;22.02;;;;;;;16.49;100.00;100648.56;5097121;28;20063;-85
2023/10/13 04:48:14;;;;;;;45.58;20.77;;;;;;;16.52;100.00;100642.56;5082371;28;20082;-86
2023/10/13 04:50:47;;;;;;;53.67;20.37;;;;;;;16.52;100.00;100647.19;5080670;28;20032;-85
2023/10/13 04:53:59;;;;;;;52.38;21.38;;;;;;;16.55;100.00;100646.69;5079299;28;20032;-85
2023/10/13 05:02:42;;;;;;;52.22;18.65;;;;;;;16.59;100.00;100658.78;5096988;28;20055;-85
2023/10/13 05:46:35;;;;;;;31.07;13.23;;;;;;;16.57;100.00;100551.41;5081435;28;20110;-85
2023/10/13 05:52:06;;;;;;;35.45;13.65;;;;;;;16.56;100.00;100547.81;5096496;28;20040;-85
2023/10/13 06:30:13;;;;;;;38.78;14.75;;;;;;;16.40;100.00;100537.84;5095545;28;20086;-86
2023/10/13 06:32:39;;;;;;;38.13;13.83;;;;;;;16.38;100.00;100532.63;5093985;28;20028;-85
2023/10/13 06:35:08;;;;;;;40.80;14.23;;;;;;;16.37;100.00;100528.28;5076832;28;20094;-86
2023/10/13 06:37:36;;;;;;;38.38;13.98;;;;;;;16.36;100.00;100529.34;5077455;28;20028;-86
2023/10/13 06:40:22;;;;;;;35.08;13.60;;;;;;;16.36;100.00;100515.66;5093825;28;20036;-85
2023/10/13 06:42:48;;;;;;;35.10;12.82;;;;;;;16.36;100.00;100507.44;5093413;28;20027;-86
2023/10/13 06:45:16;;;;;;;32.27;13.50;;;;;;;16.38;100.00;100510.72;5077201;28;20028;-86
2023/10/13 06:47:43;;;;;;;32.88;13.65;;;;;;;16.38;100.00;100502.53;5078021;28;20051;-85
2023/10/13 06:50:19;;;;;;;38.67;12.90;;;;;;;16.40;100.00;100496.78;5077691;28;20081;-85
2023/10/13 06:52:48;;;;;;;36.03;13.38;;;;;;;16.43;100.00;100502.56;5095541;28;20476;-86
2023/10/13 06:55:17;;;;;;;37.92;13.90;;;;;;;16.43;100.00;100490.78;5094889;28;20028;-85
2023/10/13 06:57:43;;;;;;;40.37;14.00;;;;;;;16.45;100.00;100491.34;5093531;28;20070;-85
2023/10/13 07:00:19;;;;;;;36.70;13.13;;;;;;;16.46;100.00;100488.34;5076584;28;20394;-85
2023/10/13 07:02:46;;;;;;;39.55;13.05;;;;;;;16.51;100.00;100486.75;5093798;28;20058;-86
2023/10/13 07:05:13;;;;;;;33.08;12.77;;;;;;;16.53;100.00;100481.81;5093334;28;20031;-86
2023/10/13 07:07:40;;;;;;;34.60;12.52;;;;;;;16.56;100.00;100473.88;5093158;28;20062;-86
2023/10/13 07:10:12;;;;;;;33.53;12.97;;;;;;;16.57;100.00;100472.81;5094720;28;20032;-85
2023/10/13 07:12:43;;;;;;;41.45;13.75;;;;;;;16.59;100.00;100475.28;5092942;28;20411;-86
2023/10/13 07:15:19;;;;;;;44.28;14.05;;;;;;;16.60;100.00;100458.56;5093737;28;20416;-85
2023/10/13 07:17:46;;;;;;;35.30;14.23;;;;;;;16.62;100.00;100461.03;5093275;28;20031;-86
2023/10/13 07:20:16;;;;;;;37.95;12.93;;;;;;;16.64;100.00;100456.97;5094492;28;20428;-85
2023/10/13 07:22:54;;;;;;;42.40;13.63;;;;;;;16.66;100.00;100459.44;5094029;28;20032;-85
2023/10/13 07:25:25;;;;;;;36.15;13.35;;;;;;;16.69;100.00;100447.94;5078595;28;20032;-85
2023/10/13 07:27:53;;;;;;;34.80;12.25;;;;;;;16.73;100.00;100449.06;5077100;28;20036;-86
2023/10/13 07:30:20;;;;;;;37.38;12.43;;;;;;;16.76;100.00;100450.47;5093114;28;20040;-86
2023/10/13 07:32:50;;;;;;;34.42;12.50;;;;;;;16.78;100.00;100448.25;5093014;28;20028;-86
2023/10/13 07:35:20;;;;;;;25.77;11.10;;;;;;;16.81;100.00;100462.25;5059683;28;20471;-85
2023/10/13 07:37:48;;;;;;;29.73;12.10;;;;;;;16.83;100.00;100454.59;5093719;28;20035;-85
2023/10/13 07:43:03;;;;;;;33.22;12.25;;;;;;;16.97;100.00;100441.25;5094139;28;20094;-86
2023/10/13 07:45:39;;;;;;;29.75;10.57;;;;;;;17.04;100.00;100442.91;5092276;28;20073;-86
2023/10/13 07:48:12;;;;;;;29.17;12.23;;;;;;;17.09;100.00;100445.69;5092982;28;20055;-86
2023/10/13 07:50:40;;;;;;;30.38;11.25;;;;;;;17.10;100.00;100439.13;5093359;28;20074;-85
2023/10/13 07:53:20;;;;;;;25.75;11.35;;;;;;;17.09;100.00;100449.25;5093066;28;20085;-86
2023/10/13 07:55:55;;;;;;;24.15;10.20;;;;;;;17.10;100.00;100433.63;5093973;28;20036;-86
2023/10/13 07:58:24;;;;;;;23.63;10.32;;;;;;;17.14;100.00;100437.47;5077016;28;20050;-86
2023/10/13 08:01:06;;;;;;;20.60;9.10;;;;;;;17.18;100.00;100436.69;5075838;28;20028;-85
2023/10/13 08:03:34;;;;;;;20.73;8.60;;;;;;;17.22;100.00;100439.69;5092849;28;20031;-86
2023/10/13 08:08:38;;;;;;;21.58;8.00;;;;;;;17.37;100.00;100438.91;5093445;28;20036;-86
2023/10/13 08:11:11;;;;;;;17.73;7.55;;;;;;;17.41;100.00;100433.72;5075587;28;20123;-86
2023/10/13 08:13:46;;;;;;;22.27;7.70;;;;;;;17.49;100.00;100441.41;5092621;28;20610;-86
2023/10/13 08:16:20;;;;;;;21.65;7.53;;;;;;;17.59;100.00;100422.22;5092283;28;20066;-85
2023/10/13 08:18:49;;;;;;;14.57;6.40;;;;;;;17.65;100.00;100420.31;5110923;28;20384;-86
2023/10/13 08:21:19;;;;;;;15.57;6.03;;;;;;;17.75;100.00;100430.47;5080041;28;20062;-85
2023/10/13 08:34:38;;;;;;;17.35;6.45;;;;;;;18.12;100.00;100421.16;5097797;28;20479;-86
2023/10/13 08:37:22;;;;;;;16.58;5.78;;;;;;;18.12;100.00;100418.41;5096630;28;20032;-87
2023/10/13 08:39:58;;;;;;;20.63;6.60;;;;;;;18.17;100.00;100411.00;5097552;28;20118;-87
2023/10/13 08:42:52;;;;;;;17.05;6.80;;;;;;;18.25;100.00;100398.63;5096217;28;20031;-87
2023/10/13 08:59:21;;;;;;;15.50;6.35;;;;;;;18.54;100.00;100411.72;5097625;28;20036;-87
2023/10/13 09:01:45;;;;;;;16.08;5.85;;;;;;;18.57;100.00;100400.16;5095847;28;20044;-86
2023/10/13 09:04:27;;;;;;;21.35;5.95;;;;;;;18.64;100.00;100395.19;5095661;28;20028;-86
2023/10/13 09:07:08;;;;;;;18.73;5.93;;;;;;;18.70;100.00;100390.50;5096190;28;20038;-86
2023/10/13 09:09:58;;;;;;;13.88;5.50;;;;;;;18.76;100.00;100383.88;5097415;28;20028;-87
2023/10/13 09:18:12;;;;;;;9.45;5.45;;;;;;;18.88;100.00;100376.19;5097599;28;20038;-87
2023/10/13 09:23:12;;;;;;;17.17;5.70;;;;;;;18.98;100.00;100378.03;5095674;28;20127;-86
2023/10/13 09:25:58;;;;;;;15.88;5.90;;;;;;;19.03;100.00;100389.03;5095739;28;20097;-86
2023/10/13 09:28:25;;;;;;;13.68;5.30;;;;;;;19.08;100.00;100372.47;5095836;28;20115;-86
2023/10/13 09:30:52;;;;;;;22.05;6.65;;;;;;;19.10;100.00;100380.44;5078845;28;20142;-87
2023/10/13 09:33:36;;;;;;;17.10;6.10;;;;;;;19.16;100.00;100370.25;5095025;28;20032;-87
2023/10/13 09:36:06;;;;;;;13.27;5.13;;;;;;;19.27;100.00;100371.81;5080942;28;20044;-87
2023/10/13 09:38:36;;;;;;;16.35;5.75;;;;;;;19.43;100.00;100362.34;5095181;28;20031;-86
2023/10/13 09:43:51;;;;;;;17.52;5.63;;;;;;;19.81;100.00;100361.78;5096724;28;20047;-86
2023/10/13 09:46:23;;;;;;;13.13;5.53;;;;;;;19.84;100.00;100352.13;5094724;28;20036;-86
2023/10/13 09:49:04;;;;;;;16.33;5.57;;;;;;;19.77;100.00;100358.78;5094908;28;20059;-86
2023/10/13 09:51:35;;;;;;;15.82;6.00;;;;;;;19.81;100.00;100353.53;5096170;28;20028;-87
2023/10/13 09:54:09;;;;;;;13.75;5.38;;;;;;;19.93;100.00;100351.22;5078462;28;20040;-87
2023/10/13 09:56:55;;;;;;;17.52;5.00;;;;;;;20.11;100.00;100346.09;5096651;28;20107;-86
2023/10/13 09:59:35;;;;;;;14.77;4.70;;;;;;;20.32;100.00;100339.22;5095084;28;20030;-87
2023/10/13 10:02:08;;;;;;;16.15;5.07;;;;;;;20.55;100.00;100327.66;5095355;28;20484;-87
2023/10/13 10:04:44;;;;;;;17.27;5.30;;;;;;;20.67;100.00;100331.69;5094937;28;20531;-87
2023/10/13 10:07:09;;;;;;;19.45;5.13;;;;;;;20.78;100.00;100324.06;5080023;28;20456;-87
2023/10/13 10:09:36;;;;;;;18.13;5.03;;;;;;;20.88;100.00;100319.56;5094360;28;20051;-87
2023/10/13 10:12:08;;;;;;;12.38;5.22;;;;;;;20.89;100.00;100323.94;5094021;28;20032;-86
2023/10/13 10:15:01;;;;;;;21.05;5.07;;;;;;;20.83;100.00;100317.66;5094552;28;20031;-86
2023/10/13 10:17:29;;;;;;;13.90;4.93;;;;;;;20.74;100.00;100314.75;5111727;28;20036;-87
2023/10/13 10:19:59;;;;;;;20.15;5.43;;;;;;;20.69;100.00;100317.59;5078548;28;20360;-86
2023/10/13 10:22:27;;;;;;;15.85;5.38;;;;;;;20.67;100.00;100306.06;5095336;28;20447;-87
2023/10/13 10:25:02;;;;;;;14.88;5.72;;;;;;;20.68;100.00;100307.69;5095317;28;20469;-87
2023/10/13 10:27:29;;;;;;;20.40;5.85;;;;;;;20.70;100.00;100302.72;5094242;28;20020;-86
2023/10/13 10:29:56;;;;;;;17.03;5.53;;;;;;;20.68;100.00;100300.25;5077034;28;20044;-87
2023/10/13 10:32:40;;;;;;;12.80;4.82;;;;;;;20.70;100.00;100294.44;5077302;28;20123;-86
2023/10/13 10:35:20;;;;;;;12.73;5.20;;;;;;;20.74;100.00;100300.16;5094006;28;20484;-87
2023/10/13 10:37:49;;;;;;;17.02;5.75;;;;;;;20.79;100.00;100302.88;5094122;28;20089;-86
2023/10/13 10:40:41;;;;;;;14.35;5.78;;;;;;;20.92;100.00;100299.38;5093270;28;20139;-87
2023/10/13 10:43:08;;;;;;;19.10;5.40;;;;;;;20.95;100.00;100304.28;5095326;28;20464;-87
2023/10/13 10:45:36;;;;;;;17.75;5.85;;;;;;;20.78;100.00;100312.25;5094139;28;20036;-86
2023/10/13 10:48:16;;;;;;;15.02;4.90;;;;;;;20.62;100.00;100309.66;5094972;28;20082;-87
2023/10/13 10:50:42;;;;;;;19.52;6.15;;;;;;;20.26;100.00;100315.63;5095666;28;20058;-86
2023/10/13 10:53:08;;;;;;;16.80;6.25;;;;;;;20.26;100.00;100309.31;5095699;28;20032;-87
2023/10/13 10:55:38;;;;;;;16.27;6.10;;;;;;;20.41;100.00;100300.84;5093625;28;20111;-87
2023/10/13 10:58:06;;;;;;;16.98;5.63;;;;;;;20.57;100.00;100306.16;5093533;28;20031;-87
2023/10/13 11:00:50;;;;;;;12.57;5.18;;;;;;;20.78;100.00;100298.47;5094819;28;20032;-87
2023/10/13 11:03:16;;;;;;;19.23;5.75;;;;;;;20.96;100.00;100313.34;5093866;28;20024;-86
2023/10/13 11:05:50;;;;;;;13.90;6.13;;;;;;;21.15;100.00;100307.84;5093078;28;20062;-86
2023/10/13 11:08:31;;;;;;;16.02;6.70;;;;;;;21.31;100.00;100303.72;5094505;28;20038;-87
2023/10/13 11:11:05;;;;;;;25.52;6.53;;;;;;;21.43;98.26;100294.16;5093511;28;20525;-87
2023/10/13 11:13:50;;;;;;;16.42;5.85;;;;;;;21.44;97.08;100293.84;5093943;28;20032;-86
2023/10/13 11:16:34;;;;;;;13.43;6.10;;;;;;;21.38;97.90;100286.78;5094931;28;20518;-86
2023/10/13 11:19:05;;;;;;;13.80;5.90;;;;;;;21.37;98.40;100282.38;5096091;28;20032;-87
2023/10/13 11:21:35;;;;;;;20.17;5.63;;;;;;;21.38;97.27;100271.03;5094072;28;20436;-88
2023/10/13 11:24:08;;;;;;;15.43;5.43;;;;;;;21.50;96.61;100273.34;5092886;28;20036;-87
2023/10/13 11:26:49;;;;;;;12.73;5.55;;;;;;;21.28;97.41;100256.59;5093240;28;20360;-87
2023/10/13 11:29:19;;;;;;;13.82;5.60;;;;;;;21.35;96.10;100248.75;5092665;28;20062;-87
2023/10/13 11:31:57;;;;;;;17.77;6.50;;;;;;;21.63;95.82;100248.81;5093038;28;20086;-87
2023/10/13 11:34:23;;;;;;;15.95;6.20;;;;;;;21.91;94.54;100235.88;5092587;28;20063;-87
2023/10/13 11:36:48;;;;;;;15.27;6.10;;;;;;;21.96;94.14;100230.25;5092669;28;20028;-87
2023/10/13 11:39:22;;;;;;;14.07;5.47;;;;;;;22.06;92.10;100224.53;5076014;28;20135;-86
2023/10/13 11:41:56;;;;;;;17.67;5.57;;;;;;;22.31;89.38;100227.03;5079337;28;20059;-86
2023/10/13 11:46:56;;;;;;;18.65;5.70;;;;;;;22.45;88.23;100205.75;5096765;28;20492;-87
2023/10/13 11:49:33;;;;;;;14.13;5.47;;;;;;;22.64;86.76;100205.59;5092726;28;20076;-87
2023/10/13 11:52:15;;;;;;;19.80;6.05;;;;;;;22.67;87.20;100206.94;5093520;28;20028;-87
2023/10/13 11:54:41;;;;;;;17.43;6.07;;;;;;;22.55;86.22;100202.75;5093224;28;20043;-87
2023/10/13 11:57:07;;;;;;;18.30;5.60;;;;;;;22.47;87.37;100214.56;5093502;28;20055;-87
2023/10/13 11:59:40;;;;;;;20.40;6.45;;;;;;;22.52;87.31;100208.91;5092770;28;20457;-87
2023/10/13 12:04:54;;;;;;;14.30;5.47;;;;;;;23.05;83.72;100187.22;5094355;28;20046;-87
2023/10/13 12:07:48;;;;;;;20.83;6.57;;;;;;;23.29;82.33;100195.19;5092421;28;20073;-87
2023/10/13 12:10:49;;;;;;;18.55;5.70;;;;;;;23.64;81.40;100184.28;5092932;28;20602;-87
2023/10/13 12:13:14;;;;;;;19.20;5.80;;;;;;;24.45;76.86;100174.72;5092786;28;20062;-87
2023/10/13 12:15:51;;;;;;;18.30;6.47;;;;;;;24.67;74.21;100182.09;5075557;28;20060;-87
2023/10/13 12:18:19;;;;;;;24.40;6.53;;;;;;;24.39;74.73;100172.41;5094056;28;20031;-87
2023/10/13 12:20:47;;;;;;;20.30;6.60;;;;;;;24.23;75.91;100175.66;5092545;28;20088;-87
2023/10/13 12:23:17;;;;;;;17.05;6.10;;;;;;;24.23;75.89;100181.22;5092586;28;20483;-87
2023/10/13 12:25:57;;;;;;;18.80;6.10;;;;;;;24.41;76.14;100170.94;5076407;28;20040;-87
2023/10/13 12:28:26;;;;;;;20.27;6.25;;;;;;;24.42;74.97;100174.53;5093012;28;20426;-87
2023/10/13 12:30:52;;;;;;;18.10;5.20;;;;;;;24.27;74.33;100179.44;5092338;28;20035;-87
2023/10/13 12:33:24;;;;;;;19.63;6.60;;;;;;;24.43;74.32;100174.19;5092392;28;20118;-88
2023/10/13 12:52:05;;;;;;;26.33;5.93;;;;;;;23.13;76.31;100147.72;5092428;28;20395;-87
2023/10/13 12:54:38;;;;;;;21.48;5.78;;;;;;;23.09;76.75;100157.75;5058759;28;20123;-87
2023/10/13 12:57:09;;;;;;;17.58;5.57;;;;;;;23.02;77.59;100162.94;5092293;28;20352;-87
2023/10/13 12:59:35;;;;;;;13.70;5.15;;;;;;;23.10;77.56;100151.13;5060321;28;20043;-87
2023/10/13 13:02:06;;;;;;;18.92;5.35;;;;;;;23.30;76.11;100155.31;5092129;28;20028;-87
2023/10/13 13:04:36;;;;;;;15.70;5.53;;;;;;;23.41;73.42;100147.53;5094054;28;20082;-87
2023/10/13 13:07:05;;;;;;;15.38;5.35;;;;;;;23.39;74.53;100149.81;5095607;28;20199;-87
2023/10/13 13:09:32;;;;;;;18.65;5.65;;;;;;;23.37;74.57;100158.44;5095758;28;20031;-88
2023/10/13 13:12:00;;;;;;;20.45;5.35;;;;;;;23.29;73.97;100145.38;5095911;28;20410;-87
2023/10/13 13:14:28;;;;;;;18.70;5.22;;;;;;;23.19;73.75;100157.50;5079010;28;20032;-87
2023/10/13 13:17:06;;;;;;;16.27;5.17;;;;;;;23.07;73.80;100160.84;5095855;28;20036;-87
2023/10/13 13:19:39;;;;;;;13.50;4.72;;;;;;;23.01;74.42;100133.63;5095603;28;20036;-88
2023/10/13 13:22:14;;;;;;;16.13;5.13;;;;;;;23.00;73.64;100141.13;5095406;28;20036;-87
2023/10/13 13:24:43;;;;;;;14.90;4.68;;;;;;;22.89;73.96;100126.72;5095710;28;20024;-88
2023/10/13 13:27:13;;;;;;;14.90;4.88;;;;;;;22.82;74.47;100148.47;5096481;28;20024;-87
2023/10/13 13:29:40;;;;;;;18.70;4.90;;;;;;;22.80;74.92;100159.06;5096853;28;20036;-87
2023/10/13 13:32:17;;;;;;;16.77;5.28;;;;;;;22.74;74.84;100150.06;5095247;28;20031;-87
2023/10/13 13:34:42;;;;;;;21.48;5.35;;;;;;;22.62;76.61;100152.59;5095051;28;20056;-87
2023/10/13 13:37:08;;;;;;;15.63;5.03;;;;;;;21.98;79.16;100155.38;5095141;28;20030;-88
2023/10/13 13:39:33;;;;;;;19.45;5.28;;;;;;;21.86;79.20;100155.91;5096397;28;20413;-88
2023/10/13 13:41:59;;;;;;;18.43;5.20;;;;;;;22.06;78.17;100144.41;5095384;28;20040;-87
2023/10/13 13:44:35;;;;;;;18.10;4.90;;;;;;;22.16;78.46;100156.34;5078733;28;20032;-87
2023/10/13 13:47:05;;;;;;;16.52;5.15;;;;;;;22.12;79.27;100136.03;5095423;28;20028;-87
2023/10/13 13:49:40;;;;;;;14.60;4.80;;;;;;;21.93;79.60;100141.69;5078584;28;20517;-87
2023/10/13 13:52:17;;;;;;;14.18;4.82;;;;;;;22.00;79.21;100131.03;5079703;28;20081;-87
2023/10/13 13:54:43;;;;;;;18.38;4.72;;;;;;;22.21;78.08;100137.72;5095246;28;20024;-87
2023/10/13 13:57:08;;;;;;;14.33;4.67;;;;;;;22.31;77.58;100160.72;5094549;28;20059;-87
2023/10/13 13:59:34;;;;;;;17.63;5.10;;;;;;;22.52;76.86;100131.53;5094636;28;20119;-88
2023/10/13 14:02:19;;;;;;;13.23;4.88;;;;;;;22.60;76.71;100130.78;5094738;28;20529;-87
2023/10/13 14:04:50;;;;;;;14.27;4.97;;;;;;;22.68;75.87;100123.66;5094852;28;20070;-87
2023/10/13 14:07:19;;;;;;;15.80;6.90;;;;;;;22.66;75.55;100134.25;5094979;28;20463;-88
2023/10/13 14:09:51;;;;;;;13.90;5.10;;;;;;;22.68;74.82;100126.44;5094567;28;20031;-88
2023/10/13 14:14:55;;;;;;;23.00;5.22;;;;;;;22.68;74.92;100126.44;5095582;28;20032;-89
2023/10/13 14:17:28;;;;;;;12.60;4.50;;;;;;;22.75;74.93;100129.59;5078635;28;20032;-87
2023/10/13 14:19:57;;;;;;;13.13;4.93;;;;;;;22.97;74.07;100135.41;5095135;28;20449;-88
2023/10/13 14:22:24;;;;;;;21.02;5.05;;;;;;;23.15;72.65;100131.63;5094362;28;20380;-88
2023/10/13 14:24:58;;;;;;;12.30;4.68;;;;;;;23.40;71.67;100119.06;5094521;28;20028;-88
2023/10/13 14:27:25;;;;;;;16.42;5.45;;;;;;;23.50;70.79;100145.63;5094526;28;20082;-87
2023/10/13 14:29:54;;;;;;;17.87;5.17;;;;;;;23.36;71.18;100123.59;5095713;28;20099;-88
2023/10/13 14:32:24;;;;;;;19.45;4.80;;;;;;;23.22;71.17;100131.16;5094405;28;20020;-88
2023/10/13 14:34:54;;;;;;;22.70;5.65;;;;;;;23.03;72.23;100136.91;5093717;28;20136;-87